Time;durP1;ratioP1;P1;durP2;ratioP2;P2;SDS_P1;SDS_P2;PMS_P1;PMS_P2;Temp;Humidity;BMP_temperature;BMP_pressure;BME280_temperature;BME280_humidity;BME280_pressure;Samples;Min_cycle;Max_cycle;Signal;HPM_P1;HPM_P2
2021/10/02 00:45:15;;;;;;;9.05;4.10;;;14.30;84.90;;;;;;5036402;28;20029;-80
2021/10/02 00:47:41;;;;;;;11.85;4.55;;;14.30;84.90;;;;;;5035903;28;20026;-80
2021/10/02 00:50:08;;;;;;;11.50;4.85;;;14.30;85.30;;;;;;5035776;28;20057;-81
2021/10/02 00:52:34;;;;;;;17.38;3.80;;;14.40;85.00;;;;;;5035852;28;20479;-80
2021/10/02 00:55:00;;;;;;;18.20;4.07;;;14.40;84.80;;;;;;5035942;28;20025;-80
2021/10/02 00:57:25;;;;;;;11.75;4.38;;;14.40;84.70;;;;;;5035717;28;20498;-80
2021/10/02 00:59:52;;;;;;;11.50;4.43;;;14.40;84.60;;;;;;5035705;28;20021;-80
2021/10/02 01:02:25;;;;;;;22.42;4.57;;;14.30;84.80;;;;;;5035621;28;20021;-80
2021/10/02 01:04:56;;;;;;;10.63;3.72;;;14.30;84.40;;;;;;5018034;28;20044;-80
2021/10/02 01:07:46;;;;;;;10.90;4.45;;;14.20;85.10;;;;;;5017946;28;20048;-80
2021/10/02 01:10:44;;;;;;;6.55;4.32;;;14.20;84.40;;;;;;5035598;28;20044;-80
2021/10/02 01:13:47;;;;;;;8.82;3.83;;;14.30;84.90;;;;;;5035606;28;20029;-80
2021/10/02 01:16:33;;;;;;;13.45;4.38;;;14.20;84.60;;;;;;5035039;28;20053;-80
2021/10/02 01:19:04;;;;;;;14.65;5.35;;;14.20;84.80;;;;;;5035904;28;20037;-80
2021/10/02 01:21:47;;;;;;;8.65;4.85;;;14.10;84.60;;;;;;5035758;28;20368;-81
2021/10/02 01:24:43;;;;;;;8.55;4.82;;;14.20;84.80;;;;;;5038830;28;20028;-80
2021/10/02 01:27:38;;;;;;;8.68;4.82;;;14.20;84.60;;;;;;5055670;28;20017;-80
2021/10/02 01:30:11;;;;;;;11.30;4.65;;;14.00;84.40;;;;;;5055492;28;20094;-80
2021/10/02 01:32:51;;;;;;;7.40;3.55;;;14.00;84.50;;;;;;5040237;28;20048;-80
2021/10/02 01:35:36;;;;;;;;;;;14.00;84.30;;;;;;5035999;28;20032;-80
2021/10/02 01:48:49;;;;;;;8.02;3.75;;;14.10;84.40;;;;;;5038256;28;20045;-81
2021/10/02 01:51:32;;;;;;;8.73;3.35;;;14.10;84.30;;;;;;5039168;28;20022;-80
2021/10/02 01:53:59;;;;;;;9.70;3.15;;;14.10;84.00;;;;;;5038012;28;20418;-80
2021/10/02 01:56:27;;;;;;;7.00;3.22;;;14.00;83.80;;;;;;5021318;28;20116;-80
2021/10/02 01:58:54;;;;;;;9.45;3.72;;;14.00;83.90;;;;;;5037790;28;20083;-80
2021/10/02 02:01:22;;;;;;;11.30;3.85;;;13.90;84.20;;;;;;5039409;28;20108;-80
2021/10/02 02:03:53;;;;;;;11.15;3.50;;;14.00;84.30;;;;;;5038947;28;20033;-81
2021/10/02 02:06:20;;;;;;;11.90;3.13;;;13.80;84.10;;;;;;5038722;28;20022;-80
2021/10/02 02:08:50;;;;;;;10.57;3.45;;;13.90;84.30;;;;;;5038858;28;20021;-80
2021/10/02 02:11:17;;;;;;;7.78;3.10;;;13.90;84.50;;;;;;5038986;28;20017;-80
2021/10/02 02:13:44;;;;;;;8.43;3.40;;;13.90;84.60;;;;;;5038690;28;20119;-80
2021/10/02 02:16:11;;;;;;;8.90;2.90;;;14.00;84.70;;;;;;5038572;28;20044;-80
2021/10/02 02:18:38;;;;;;;10.88;3.38;;;14.00;84.40;;;;;;5038667;28;20080;-80
2021/10/02 02:21:11;;;;;;;6.05;2.78;;;13.90;84.10;;;;;;5038522;28;20025;-80
2021/10/02 02:23:38;;;;;;;6.82;3.45;;;13.80;83.90;;;;;;5038752;28;20026;-80
2021/10/02 02:26:08;;;;;;;10.18;3.08;;;13.70;84.60;;;;;;5051470;28;20067;-80
2021/10/02 02:28:38;;;;;;;8.13;3.25;;;13.70;84.70;;;;;;5038551;28;20021;-80
2021/10/02 02:31:19;;;;;;;5.65;2.85;;;13.70;85.10;;;;;;5038558;28;20060;-80
2021/10/02 02:33:45;;;;;;;8.40;2.80;;;13.70;84.40;;;;;;5038705;28;20033;-80
2021/10/02 02:36:11;;;;;;;14.25;3.60;;;13.70;84.80;;;;;;5038301;28;20029;-80
2021/10/02 02:38:37;;;;;;;10.90;3.15;;;13.50;85.00;;;;;;5038531;28;20072;-80
2021/10/02 02:41:04;;;;;;;16.50;3.13;;;13.60;85.20;;;;;;5038190;28;20128;-80
2021/10/02 02:43:33;;;;;;;10.43;3.20;;;13.60;85.40;;;;;;5020478;28;20025;-80
2021/10/02 02:46:24;;;;;;;11.80;2.83;;;13.50;85.60;;;;;;5038094;28;20025;-80
2021/10/02 02:49:10;;;;;;;7.00;2.90;;;13.50;85.70;;;;;;5028885;28;20044;-80
2021/10/02 02:51:53;;;;;;;13.43;2.80;;;13.70;85.70;;;;;;5038302;28;20475;-80
2021/10/02 02:54:59;;;;;;;9.05;2.78;;;13.70;84.70;;;;;;5039816;28;20040;-81
2021/10/02 02:57:30;;;;;;;6.97;3.00;;;13.70;85.00;;;;;;5042657;28;20044;-80
2021/10/02 03:00:15;;;;;;;8.93;3.58;;;13.70;85.30;;;;;;5037426;28;20036;-80
2021/10/02 03:03:07;;;;;;;7.40;3.28;;;13.70;85.30;;;;;;5038025;28;20052;-80
2021/10/02 03:05:42;;;;;;;13.50;2.97;;;13.70;85.00;;;;;;5033550;28;20187;-80
2021/10/02 03:08:11;;;;;;;11.73;4.28;;;13.70;84.50;;;;;;5037714;28;20045;-80
2021/10/02 03:10:39;;;;;;;7.18;2.92;;;13.50;85.20;;;;;;5037731;28;20048;-80
2021/10/02 03:13:12;;;;;;;14.60;4.47;;;13.30;85.90;;;;;;5037634;28;20026;-80
2021/10/02 03:15:41;;;;;;;10.50;3.63;;;13.30;86.30;;;;;;5037460;28;20036;-80
2021/10/02 03:18:10;;;;;;;11.23;3.00;;;13.40;86.20;;;;;;5024536;28;20042;-80
2021/10/02 03:20:37;;;;;;;10.50;2.83;;;13.50;86.20;;;;;;5037884;28;20072;-80
2021/10/02 03:23:04;;;;;;;6.32;2.75;;;13.50;86.10;;;;;;5037962;28;20415;-81
2021/10/02 03:25:31;;;;;;;12.30;4.22;;;13.50;85.60;;;;;;5052979;28;20027;-82
2021/10/02 03:27:59;;;;;;;7.45;2.47;;;13.50;86.00;;;;;;5058048;28;20026;-82
2021/10/02 03:30:26;;;;;;;8.15;3.38;;;13.40;85.90;;;;;;5041776;28;20098;-81
2021/10/02 03:32:52;;;;;;;7.80;2.38;;;13.40;86.20;;;;;;5037234;28;20037;-82
2021/10/02 03:35:19;;;;;;;9.27;2.92;;;13.50;85.90;;;;;;5037149;28;20033;-81
2021/10/02 03:37:45;;;;;;;12.52;3.40;;;13.60;86.30;;;;;;5037324;28;20045;-82
2021/10/02 03:40:11;;;;;;;11.00;4.20;;;13.70;85.80;;;;;;5037256;28;20029;-81
2021/10/02 03:42:52;;;;;;;8.52;3.35;;;13.80;85.60;;;;;;5037117;28;20052;-82
2021/10/02 03:45:30;;;;;;;7.07;2.92;;;13.80;85.50;;;;;;5037532;28;20034;-81
2021/10/02 03:47:56;;;;;;;15.93;2.90;;;13.80;85.70;;;;;;5037651;28;20407;-82
2021/10/02 03:50:22;;;;;;;9.43;3.03;;;13.80;85.30;;;;;;5036913;28;20109;-81
2021/10/02 03:52:47;;;;;;;5.55;2.72;;;13.70;85.60;;;;;;5037233;28;20061;-82
2021/10/02 03:55:15;;;;;;;11.00;2.80;;;13.70;85.70;;;;;;5037240;28;20087;-82
2021/10/02 03:57:41;;;;;;;11.88;3.00;;;13.80;85.40;;;;;;5037070;28;20033;-82
2021/10/02 04:00:08;;;;;;;12.80;3.03;;;13.80;85.30;;;;;;5036507;28;20057;-81
2021/10/02 04:02:34;;;;;;;5.68;2.78;;;13.90;85.50;;;;;;5036504;28;20029;-81
2021/10/02 04:05:01;;;;;;;9.55;2.97;;;13.80;85.60;;;;;;5036765;28;20029;-81
2021/10/02 04:07:27;;;;;;;10.65;2.17;;;13.90;85.50;;;;;;5036895;28;20021;-81
2021/10/02 04:09:52;;;;;;;9.90;3.40;;;13.90;85.50;;;;;;5035950;28;20028;-81
2021/10/02 04:12:18;;;;;;;9.93;3.20;;;14.00;85.40;;;;;;5036453;28;20037;-80
2021/10/02 04:14:45;;;;;;;8.45;2.72;;;14.00;85.40;;;;;;5036732;28;20032;-80
2021/10/02 04:17:11;;;;;;;8.68;3.00;;;14.00;85.20;;;;;;5036103;28;20056;-81
2021/10/02 04:19:41;;;;;;;12.52;3.17;;;14.10;85.20;;;;;;5018730;28;20395;-80
2021/10/02 04:22:07;;;;;;;5.28;2.13;;;14.00;85.50;;;;;;5036624;28;20025;-80
2021/10/02 04:24:33;;;;;;;6.90;2.67;;;14.10;85.40;;;;;;5034749;28;20079;-80
2021/10/02 04:26:59;;;;;;;8.77;3.20;;;14.00;85.20;;;;;;5056364;28;20025;-80
2021/10/02 04:29:26;;;;;;;8.15;2.85;;;14.10;85.40;;;;;;5042765;28;20030;-80
2021/10/02 04:31:52;;;;;;;6.22;2.58;;;14.00;85.40;;;;;;5036465;28;20051;-80
2021/10/02 04:34:19;;;;;;;15.13;3.17;;;14.10;85.70;;;;;;5036126;28;20030;-80
2021/10/02 04:36:45;;;;;;;8.93;2.65;;;14.10;85.60;;;;;;5018700;28;20454;-80
2021/10/02 04:39:10;;;;;;;10.95;2.38;;;14.10;85.50;;;;;;5036250;28;20036;-80
2021/10/02 04:41:36;;;;;;;11.52;2.80;;;14.20;85.70;;;;;;5036229;28;20037;-80
2021/10/02 04:44:02;;;;;;;12.02;2.90;;;14.20;85.50;;;;;;5035867;28;20029;-80
2021/10/02 04:46:27;;;;;;;13.27;3.22;;;14.10;86.10;;;;;;5035923;28;20077;-80
2021/10/02 04:48:53;;;;;;;5.85;2.45;;;14.10;86.60;;;;;;5036095;28;20060;-80
2021/10/02 04:51:19;;;;;;;8.90;2.42;;;14.10;86.80;;;;;;5036052;28;20033;-81
2021/10/02 04:53:47;;;;;;;8.85;3.20;;;14.10;86.50;;;;;;5035673;28;20533;-80
2021/10/02 04:56:14;;;;;;;8.50;2.00;;;14.10;86.60;;;;;;5035876;28;20029;-80
2021/10/02 04:58:40;;;;;;;8.55;2.28;;;14.10;86.70;;;;;;5017874;28;20021;-80
2021/10/02 05:01:06;;;;;;;6.65;1.98;;;14.10;86.50;;;;;;5035544;28;20523;-80
2021/10/02 05:03:33;;;;;;;5.75;2.92;;;14.10;87.00;;;;;;5018230;28;20021;-80
2021/10/02 05:06:02;;;;;;;9.23;2.28;;;14.10;87.00;;;;;;5035720;28;20051;-80
2021/10/02 05:08:27;;;;;;;16.88;2.22;;;14.10;87.20;;;;;;5035699;28;20030;-79
2021/10/02 05:10:56;;;;;;;9.30;1.85;;;14.00;87.40;;;;;;5052091;28;20028;-81
2021/10/02 05:13:22;;;;;;;7.95;1.95;;;14.00;87.30;;;;;;5052224;28;20029;-82
2021/10/02 05:15:47;;;;;;;5.95;2.03;;;14.10;87.60;;;;;;5052944;28;20033;-81
2021/10/02 05:18:13;;;;;;;9.68;2.28;;;14.00;87.80;;;;;;5052951;28;20033;-82
2021/10/02 05:20:39;;;;;;;6.22;1.98;;;13.90;88.40;;;;;;5034243;28;20098;-82
2021/10/02 05:23:05;;;;;;;5.20;2.22;;;13.90;88.50;;;;;;5036502;28;20017;-83
2021/10/02 05:25:30;;;;;;;5.72;2.15;;;14.00;88.80;;;;;;5034222;28;20028;-81
2021/10/02 05:27:56;;;;;;;14.88;2.40;;;14.00;88.70;;;;;;5054360;28;20029;-84
2021/10/02 05:30:22;;;;;;;7.78;2.25;;;14.00;88.50;;;;;;5035989;28;20116;-88
2021/10/02 05:32:48;;;;;;;8.50;2.33;;;14.00;88.90;;;;;;5054164;28;20064;-81
2021/10/02 05:35:14;;;;;;;6.63;1.88;;;14.10;88.50;;;;;;5054015;28;20025;-83
2021/10/02 05:37:40;;;;;;;8.45;2.47;;;14.20;88.50;;;;;;5049936;28;20545;-83
2021/10/02 05:40:06;;;;;;;4.85;2.17;;;14.20;88.50;;;;;;5053918;28;20530;-82
2021/10/02 05:42:32;;;;;;;11.60;2.60;;;14.30;88.40;;;;;;5053445;28;20048;-82
2021/10/02 05:44:58;;;;;;;9.88;2.05;;;14.30;88.30;;;;;;5051400;28;20032;-82
2021/10/02 05:47:24;;;;;;;7.03;2.05;;;14.30;87.80;;;;;;5053807;28;20037;-80
2021/10/02 05:49:50;;;;;;;7.22;1.63;;;14.30;87.50;;;;;;5053527;28;20426;-85
2021/10/02 05:52:16;;;;;;;7.20;2.13;;;14.30;87.90;;;;;;5052884;28;20442;-84
2021/10/02 05:54:42;;;;;;;4.88;1.88;;;14.30;88.00;;;;;;5053772;28;20033;-88
2021/10/02 05:57:08;;;;;;;8.07;2.17;;;14.30;87.70;;;;;;5034890;28;20037;-84
2021/10/02 05:59:34;;;;;;;9.75;1.83;;;14.30;87.80;;;;;;5053863;28;20021;-82
2021/10/02 06:02:05;;;;;;;4.90;1.83;;;14.30;87.60;;;;;;5035585;28;20028;-80
2021/10/02 06:04:31;;;;;;;9.07;2.05;;;14.20;87.90;;;;;;5035465;28;20106;-78
2021/10/02 06:06:56;;;;;;;12.27;2.22;;;14.20;87.90;;;;;;5052933;28;20052;-80
2021/10/02 06:09:22;;;;;;;6.90;1.88;;;14.30;88.30;;;;;;5054307;28;20025;-79
2021/10/02 06:11:48;;;;;;;7.25;1.67;;;14.30;88.00;;;;;;5036033;28;20055;-84
2021/10/02 06:14:14;;;;;;;10.52;3.05;;;14.40;87.70;;;;;;5036659;28;20139;-83
2021/10/02 06:16:39;;;;;;;7.53;2.00;;;14.30;88.10;;;;;;5054699;28;20542;-83
2021/10/02 06:19:10;;;;;;;4.72;2.00;;;14.30;88.20;;;;;;5043744;28;20037;-82
2021/10/02 06:21:36;;;;;;;4.35;1.98;;;14.30;88.60;;;;;;5057073;28;20033;-81
2021/10/02 06:24:02;;;;;;;8.50;2.15;;;14.30;88.50;;;;;;5052043;28;20017;-81
2021/10/02 06:26:31;;;;;;;5.55;1.95;;;14.30;88.50;;;;;;5052927;28;20029;-83
2021/10/02 06:28:57;;;;;;;10.63;2.25;;;14.20;88.90;;;;;;5037217;28;20060;-84
2021/10/02 06:31:24;;;;;;;11.85;2.30;;;14.30;89.20;;;;;;5048949;28;20028;-80
2021/10/02 06:33:50;;;;;;;4.45;2.08;;;14.30;89.40;;;;;;5054591;28;20119;-85
2021/10/02 06:36:16;;;;;;;8.18;2.13;;;14.30;89.30;;;;;;5063190;28;20147;-87
2021/10/02 06:38:42;;;;;;;6.85;2.45;;;14.30;89.40;;;;;;5050004;28;20042;-87
2021/10/02 06:41:09;;;;;;;10.15;2.47;;;14.40;89.40;;;;;;5053849;28;20104;-89
2021/10/02 06:43:35;;;;;;;9.38;2.47;;;14.40;89.40;;;;;;5048905;28;20029;-86
2021/10/02 06:46:02;;;;;;;4.90;2.53;;;14.40;89.60;;;;;;5050571;28;20498;-89
2021/10/02 06:48:28;;;;;;;5.63;2.17;;;14.50;89.60;;;;;;5056559;28;20112;-89
2021/10/02 06:50:54;;;;;;;14.50;4.22;;;14.50;89.40;;;;;;5056768;28;20029;-86
2021/10/02 06:53:21;;;;;;;8.77;3.17;;;14.60;89.30;;;;;;5055508;28;20032;-88
2021/10/02 06:55:47;;;;;;;6.22;2.17;;;14.60;89.70;;;;;;5054904;28;20466;-88
2021/10/02 06:58:13;;;;;;;7.80;2.78;;;14.60;89.90;;;;;;5051017;28;20037;-85
2021/10/02 07:00:39;;;;;;;4.88;2.70;;;14.70;89.90;;;;;;5039188;28;20029;-88
2021/10/02 07:03:05;;;;;;;3.25;1.88;;;14.80;89.80;;;;;;5038058;28;20022;-87
2021/10/02 07:05:32;;;;;;;6.28;2.33;;;14.70;90.10;;;;;;5020474;28;20021;-88
2021/10/02 07:07:57;;;;;;;4.00;2.03;;;14.70;90.70;;;;;;5038070;28;20025;-87
2021/10/02 07:10:24;;;;;;;2.35;1.40;;;14.70;91.10;;;;;;5048851;28;20035;-90
2021/10/02 07:12:51;;;;;;;2.00;1.20;;;14.80;91.20;;;;;;5065106;28;20028;-88
2021/10/02 07:15:17;;;;;;;2.88;1.27;;;14.80;90.80;;;;;;5039057;28;20075;-88
2021/10/02 07:17:43;;;;;;;3.72;1.45;;;14.80;90.70;;;;;;5035050;28;20061;-86
2021/10/02 07:20:10;;;;;;;3.10;1.80;;;14.90;90.50;;;;;;5057015;28;20044;-87
2021/10/02 07:22:38;;;;;;;7.72;2.30;;;15.00;90.80;;;;;;5057069;28;20029;-87
2021/10/02 07:25:06;;;;;;;3.92;2.80;;;14.90;90.80;;;;;;5035477;28;20089;-81
2021/10/02 07:27:32;;;;;;;7.55;2.72;;;15.00;90.80;;;;;;5037429;28;20030;-86
2021/10/02 07:29:58;;;;;;;4.93;2.83;;;15.00;91.30;;;;;;5037511;28;20036;-84
2021/10/02 07:32:25;;;;;;;6.57;2.75;;;14.90;91.10;;;;;;5037099;28;20183;-82
2021/10/02 07:34:52;;;;;;;12.32;3.50;;;15.00;91.00;;;;;;5036860;28;20160;-83
2021/10/02 07:37:18;;;;;;;6.72;3.10;;;15.00;91.20;;;;;;5034961;28;20095;-83
2021/10/02 07:39:44;;;;;;;10.02;4.47;;;15.00;91.10;;;;;;5035017;28;20030;-81
2021/10/02 07:42:13;;;;;;;11.30;4.53;;;15.00;91.20;;;;;;5037115;28;20041;-85
2021/10/02 07:44:41;;;;;;;7.95;4.15;;;15.00;91.10;;;;;;5036583;28;20032;-86
2021/10/02 07:47:08;;;;;;;14.25;4.65;;;15.00;91.00;;;;;;5019457;28;20044;-85
2021/10/02 07:49:35;;;;;;;10.27;3.53;;;15.10;91.00;;;;;;5053855;28;20474;-82
2021/10/02 07:52:02;;;;;;;17.15;3.95;;;15.20;91.00;;;;;;5057145;28;20071;-83
2021/10/02 07:54:28;;;;;;;11.48;3.38;;;15.20;91.00;;;;;;5030589;28;20499;-85
2021/10/02 07:56:56;;;;;;;12.05;3.83;;;15.30;90.90;;;;;;5036594;28;20026;-84
2021/10/02 07:59:23;;;;;;;11.07;3.67;;;15.30;90.80;;;;;;5036848;28;20017;-87
2021/10/02 08:01:49;;;;;;;12.68;3.50;;;15.40;90.60;;;;;;5035491;28;20048;-88
2021/10/02 08:04:15;;;;;;;15.13;4.30;;;15.30;90.60;;;;;;5036908;28;20070;-84
2021/10/02 08:06:41;;;;;;;15.27;3.35;;;15.40;90.50;;;;;;5037221;28;20017;-80
2021/10/02 08:09:07;;;;;;;10.93;3.10;;;15.50;90.60;;;;;;5036618;28;20065;-84
2021/10/02 08:11:33;;;;;;;5.65;2.15;;;15.50;90.40;;;;;;5018534;28;20026;-86
2021/10/02 08:13:59;;;;;;;12.77;3.38;;;15.50;90.10;;;;;;5026642;28;20030;-88
2021/10/02 08:16:30;;;;;;;6.97;2.63;;;15.70;90.10;;;;;;5032313;28;20131;-88
2021/10/02 08:19:00;;;;;;;13.25;3.60;;;15.70;90.10;;;;;;5054896;28;20552;-88
2021/10/02 08:21:28;;;;;;;8.93;3.58;;;15.70;90.10;;;;;;5056425;28;20036;-89
2021/10/02 08:23:54;;;;;;;11.40;3.45;;;15.70;90.20;;;;;;5038390;28;20025;-89
2021/10/02 08:26:21;;;;;;;15.63;3.25;;;15.80;89.90;;;;;;5056387;28;20021;-88
2021/10/02 08:28:52;;;;;;;12.13;3.70;;;15.80;90.00;;;;;;5038120;28;20025;-89
2021/10/02 08:31:21;;;;;;;15.00;3.83;;;15.80;90.00;;;;;;5054888;28;20070;-88
2021/10/02 08:33:47;;;;;;;8.25;3.95;;;15.90;90.10;;;;;;5055644;28;20029;-89
2021/10/02 08:36:13;;;;;;;13.55;3.50;;;15.90;89.90;;;;;;5037752;28;20097;-88
2021/10/02 08:38:40;;;;;;;10.13;3.75;;;15.90;90.00;;;;;;5049753;28;20041;-88
2021/10/02 08:41:07;;;;;;;7.32;3.65;;;15.90;90.00;;;;;;5048079;28;20025;-89
2021/10/02 08:43:36;;;;;;;20.52;4.00;;;15.90;89.90;;;;;;5053142;28;20041;-89
2021/10/02 08:46:05;;;;;;;13.18;3.97;;;16.00;90.00;;;;;;5056133;28;20112;-88
2021/10/02 08:48:32;;;;;;;11.13;4.35;;;16.00;89.70;;;;;;5052002;28;20107;-90
2021/10/02 08:51:01;;;;;;;7.88;3.83;;;16.00;89.80;;;;;;5035972;28;20029;-89
2021/10/02 08:53:29;;;;;;;13.97;5.13;;;16.00;89.70;;;;;;5055395;28;20456;-86
2021/10/02 08:55:56;;;;;;;10.13;3.78;;;16.00;89.60;;;;;;5054955;28;20111;-87
2021/10/02 08:58:22;;;;;;;13.45;4.53;;;16.00;89.70;;;;;;5050577;28;20033;-87
2021/10/02 09:00:48;;;;;;;14.07;3.22;;;16.00;89.50;;;;;;5052266;28;20032;-86
2021/10/02 09:03:14;;;;;;;11.48;3.50;;;16.00;89.60;;;;;;5055251;28;20013;-82
2021/10/02 09:05:40;;;;;;;9.48;3.35;;;16.10;89.60;;;;;;5044745;28;20064;-87
2021/10/02 09:08:06;;;;;;;13.98;4.90;;;16.10;89.80;;;;;;5055995;28;20031;-82
2021/10/02 09:10:34;;;;;;;24.60;9.32;;;16.00;89.80;;;;;;5041384;28;20732;-90
2021/10/02 09:13:00;;;;;;;12.27;4.07;;;16.10;90.00;;;;;;5038598;28;20025;-86
2021/10/02 09:15:26;;;;;;;8.52;3.35;;;16.00;90.00;;;;;;5055690;28;20029;-84
2021/10/02 09:17:52;;;;;;;7.65;2.72;;;16.00;90.20;;;;;;5053607;28;20040;-84
2021/10/02 09:20:18;;;;;;;6.07;2.70;;;16.10;90.00;;;;;;5036958;28;20531;-85
2021/10/02 09:23:04;;;;;;;16.05;3.75;;;16.10;90.00;;;;;;5055158;28;20054;-83
2021/10/02 09:25:34;;;;;;;7.75;2.40;;;16.10;90.30;;;;;;5049896;28;20495;-84
2021/10/02 09:28:05;;;;;;;8.70;2.97;;;16.10;90.10;;;;;;5054548;28;20021;-84
2021/10/02 09:30:31;;;;;;;6.05;2.65;;;16.10;90.40;;;;;;5036588;28;20094;-83
2021/10/02 09:33:05;;;;;;;19.42;3.78;;;16.10;90.40;;;;;;5053167;28;20131;-83
2021/10/02 09:35:36;;;;;;;9.88;3.35;;;16.10;90.50;;;;;;5033496;28;20037;-83
2021/10/02 09:38:03;;;;;;;9.18;3.13;;;16.10;90.70;;;;;;5046733;28;20342;-82
2021/10/02 09:40:29;;;;;;;12.10;3.20;;;16.20;90.80;;;;;;5047679;28;20040;-84
2021/10/02 09:42:57;;;;;;;13.32;3.85;;;16.20;90.70;;;;;;5047072;28;20367;-88
2021/10/02 09:45:27;;;;;;;11.38;4.63;;;16.20;90.90;;;;;;5073308;28;20029;-86
2021/10/02 09:47:57;;;;;;;9.35;3.55;;;16.20;91.00;;;;;;5056759;28;20029;-82
2021/10/02 09:50:27;;;;;;;5.78;3.38;;;16.20;91.00;;;;;;5053019;28;20044;-83
2021/10/02 09:52:55;;;;;;;10.50;3.17;;;16.30;91.10;;;;;;5016907;28;20122;-85
2021/10/02 09:55:22;;;;;;;10.38;3.97;;;16.30;90.80;;;;;;5017123;28;20046;-85
2021/10/02 09:57:54;;;;;;;15.32;4.15;;;16.40;90.90;;;;;;5051821;28;20033;-83
2021/10/02 10:00:26;;;;;;;13.93;3.08;;;16.40;90.50;;;;;;5042849;28;20090;-89
2021/10/02 10:02:53;;;;;;;11.75;3.80;;;16.50;90.40;;;;;;5038234;28;20022;-81
2021/10/02 10:05:19;;;;;;;12.43;3.00;;;16.60;90.00;;;;;;5045987;28;20036;-80
2021/10/02 10:07:56;;;;;;;11.23;3.63;;;16.70;89.80;;;;;;5056195;28;20121;-85
2021/10/02 10:10:22;;;;;;;8.88;3.03;;;16.80;89.50;;;;;;5059876;28;20095;-80
2021/10/02 10:12:48;;;;;;;12.90;2.92;;;16.80;89.50;;;;;;5030081;28;20028;-91
2021/10/02 10:15:38;;;;;;;11.80;3.45;;;16.80;89.70;;;;;;5034865;28;20036;-85
2021/10/02 10:18:04;;;;;;;8.40;3.10;;;16.80;89.70;;;;;;5048115;28;20502;-89
2021/10/02 10:20:37;;;;;;;9.55;3.30;;;16.90;89.20;;;;;;5039075;28;20436;-85
2021/10/02 10:23:04;;;;;;;7.47;3.10;;;17.00;89.20;;;;;;5040078;28;20407;-85
2021/10/02 10:25:31;;;;;;;10.93;3.13;;;17.10;88.90;;;;;;5056164;28;20843;-80
2021/10/02 10:28:04;;;;;;;6.03;1.73;;;17.20;88.80;;;;;;5055226;28;20032;-91
2021/10/02 10:30:30;;;;;;;12.65;3.03;;;17.00;88.50;;;;;;5056736;28;20025;-84
2021/10/02 10:33:09;;;;;;;11.48;2.72;;;17.00;88.90;;;;;;5055775;28;20108;-80
2021/10/02 10:35:41;;;;;;;13.80;3.50;;;17.10;89.00;;;;;;5050672;28;20027;-80
2021/10/02 10:38:09;;;;;;;8.38;2.72;;;17.10;89.00;;;;;;5053678;28;20545;-88
2021/10/02 10:40:36;;;;;;;7.78;2.17;;;17.20;88.40;;;;;;5057062;28;20051;-78
2021/10/02 10:43:02;;;;;;;10.50;2.92;;;17.20;88.80;;;;;;5055878;28;20023;-80
2021/10/02 10:45:30;;;;;;;6.68;1.90;;;17.20;88.60;;;;;;5057360;28;20036;-79
2021/10/02 10:47:56;;;;;;;6.88;2.42;;;17.30;88.10;;;;;;5055107;28;20057;-78
2021/10/02 10:50:25;;;;;;;7.95;1.70;;;17.10;88.30;;;;;;5057503;28;20036;-83
2021/10/02 10:52:52;;;;;;;4.40;1.92;;;17.10;88.60;;;;;;5039689;28;20040;-82
2021/10/02 10:55:20;;;;;;;7.47;2.10;;;16.90;88.90;;;;;;5048807;28;20020;-79
2021/10/02 10:57:58;;;;;;;7.57;2.75;;;16.90;88.80;;;;;;5056376;28;20035;-79
2021/10/02 11:00:29;;;;;;;7.85;2.30;;;17.00;88.90;;;;;;5058368;28;20106;-79
2021/10/02 11:02:59;;;;;;;2.83;1.42;;;17.00;88.40;;;;;;5045378;28;20033;-77
2021/10/02 11:05:38;;;;;;;9.00;2.85;;;17.10;87.70;;;;;;5019855;28;20081;-81
2021/10/02 11:08:06;;;;;;;6.57;2.60;;;17.10;87.40;;;;;;5037417;28;20022;-80
2021/10/02 11:10:41;;;;;;;6.68;1.63;;;17.10;87.40;;;;;;5037544;28;20021;-81
2021/10/02 11:13:11;;;;;;;4.20;1.77;;;17.10;87.30;;;;;;5041604;28;20029;-85
2021/10/02 11:15:37;;;;;;;9.30;2.35;;;17.10;87.00;;;;;;5058427;28;20029;-87
2021/10/02 11:18:03;;;;;;;9.23;2.15;;;17.00;87.30;;;;;;5045674;28;20553;-85
2021/10/02 11:20:29;;;;;;;10.00;2.55;;;17.00;87.20;;;;;;5037206;28;20056;-85
2021/10/02 11:23:23;;;;;;;7.97;2.65;;;17.00;87.50;;;;;;5037608;28;20025;-91
2021/10/02 11:26:11;;;;;;;11.43;2.70;;;16.90;87.60;;;;;;5055955;28;20035;-86
2021/10/02 11:28:37;;;;;;;8.50;2.40;;;16.80;88.10;;;;;;5037838;28;20079;-86
2021/10/02 11:31:16;;;;;;;5.57;2.50;;;16.80;88.30;;;;;;5037072;28;20034;-87
2021/10/02 11:33:45;;;;;;;5.90;3.10;;;16.80;88.50;;;;;;5037496;28;20454;-85
2021/10/02 11:39:27;;;;;;;7.63;2.58;;;16.80;88.90;;;;;;5037623;28;20036;-79
2021/10/02 11:41:58;;;;;;;6.55;2.03;;;16.80;88.60;;;;;;5036877;28;20033;-86
2021/10/02 11:44:32;;;;;;;14.48;3.45;;;16.80;89.10;;;;;;5037365;28;20034;-81
2021/10/02 11:47:39;;;;;;;2.22;1.48;;;16.70;89.30;;;;;;5046641;28;20032;-84
2021/10/02 11:50:08;;;;;;;3.92;2.13;;;16.60;89.70;;;;;;5052134;28;20562;-83
2021/10/02 11:52:35;;;;;;;8.07;2.10;;;16.70;89.80;;;;;;5048430;28;20037;-83
2021/10/02 11:55:32;;;;;;;11.00;2.42;;;16.70;89.80;;;;;;5054843;28;20029;-84
2021/10/02 11:58:07;;;;;;;6.18;2.15;;;16.70;89.70;;;;;;5017772;28;20052;-84
2021/10/02 12:00:37;;;;;;;5.80;2.83;;;16.80;89.70;;;;;;5053137;28;20030;-84
2021/10/02 12:03:03;;;;;;;7.00;2.50;;;16.70;89.90;;;;;;5054439;28;20045;-82
2021/10/02 12:05:30;;;;;;;8.32;2.17;;;16.70;90.30;;;;;;5052355;28;20045;-83
2021/10/02 12:07:56;;;;;;;6.63;2.00;;;16.70;90.40;;;;;;5055688;28;20052;-84
2021/10/02 12:10:22;;;;;;;5.78;2.50;;;16.70;91.00;;;;;;5055054;28;20028;-82
2021/10/02 12:12:48;;;;;;;13.18;2.75;;;16.70;91.10;;;;;;5051489;28;20029;-84
2021/10/02 12:15:30;;;;;;;3.72;2.08;;;16.70;91.10;;;;;;5049337;28;20541;-85
2021/10/02 12:17:55;;;;;;;10.82;2.70;;;16.70;91.00;;;;;;5051210;28;20118;-85
2021/10/02 12:20:35;;;;;;;6.28;2.80;;;16.70;91.20;;;;;;5055106;28;20036;-79
2021/10/02 12:23:05;;;;;;;8.52;2.55;;;16.70;91.10;;;;;;5053879;28;20451;-84
2021/10/02 12:25:30;;;;;;;;;;;16.70;91.30;;;;;;5054056;28;20025;-84
2021/10/02 12:27:56;;;;;;;9.45;2.55;;;16.70;91.20;;;;;;5054854;28;20031;-83
2021/10/02 12:30:22;;;;;;;7.53;2.58;;;16.80;91.30;;;;;;5053679;28;20068;-84
2021/10/02 12:32:56;;;;;;;11.63;3.05;;;16.80;91.50;;;;;;5053597;28;20108;-83
2021/10/02 12:35:22;;;;;;;7.68;2.28;;;16.80;92.00;;;;;;5051080;28;20028;-84
2021/10/02 12:37:48;;;;;;;4.50;2.30;;;16.80;92.40;;;;;;5053417;28;20033;-83
2021/10/02 12:40:15;;;;;;;7.80;2.85;;;16.70;92.50;;;;;;5054568;28;20025;-84
2021/10/02 12:42:46;;;;;;;9.68;2.10;;;16.80;92.50;;;;;;5052731;28;20021;-83
2021/10/02 12:45:24;;;;;;;6.10;2.60;;;16.70;92.20;;;;;;5054196;28;20083;-84
2021/10/02 12:47:58;;;;;;;3.38;1.95;;;16.80;92.40;;;;;;5020411;28;20133;-85
2021/10/02 12:50:30;;;;;;;8.52;2.28;;;16.80;92.20;;;;;;5055177;28;20025;-83
2021/10/02 12:52:57;;;;;;;4.57;1.95;;;16.90;92.10;;;;;;5054985;28;20092;-85
2021/10/02 12:55:24;;;;;;;5.30;1.73;;;16.90;92.20;;;;;;5053496;28;20033;-84
2021/10/02 12:57:51;;;;;;;5.25;1.88;;;16.80;92.20;;;;;;5038480;28;20044;-87
2021/10/02 13:00:22;;;;;;;5.28;1.25;;;16.80;92.60;;;;;;5050406;28;20028;-84
2021/10/02 13:02:55;;;;;;;2.58;1.10;;;16.80;92.80;;;;;;5054408;28;20103;-82
2021/10/02 13:05:25;;;;;;;3.88;1.35;;;16.80;92.90;;;;;;5051807;28;20086;-81
2021/10/02 13:08:13;;;;;;;2.80;1.50;;;16.80;93.00;;;;;;5054010;28;20017;-80
2021/10/02 13:10:38;;;;;;;3.63;1.25;;;16.80;93.00;;;;;;5052447;28;20051;-82
2021/10/02 13:13:10;;;;;;;3.65;1.55;;;16.90;93.00;;;;;;5052461;28;20037;-82
2021/10/02 13:15:43;;;;;;;2.60;1.50;;;16.90;93.00;;;;;;5054479;28;20033;-81
2021/10/02 13:18:12;;;;;;;3.28;0.93;;;16.90;93.00;;;;;;5033352;28;20089;-85
2021/10/02 13:20:41;;;;;;;2.83;0.95;;;16.90;92.90;;;;;;5035022;28;20021;-80
2021/10/02 13:23:13;;;;;;;4.07;1.15;;;17.00;93.00;;;;;;5025651;28;20037;-84
2021/10/02 13:25:53;;;;;;;2.67;1.20;;;17.00;92.90;;;;;;5030270;28;20021;-82
2021/10/02 13:28:25;;;;;;;4.18;1.15;;;17.00;92.80;;;;;;5032121;28;20021;-81
2021/10/02 13:30:52;;;;;;;2.15;1.10;;;17.10;92.80;;;;;;5013933;28;20030;-82
2021/10/02 13:33:21;;;;;;;2.35;0.60;;;17.10;92.70;;;;;;5033533;28;20442;-81
2021/10/02 13:35:55;;;;;;;1.55;0.70;;;17.00;92.60;;;;;;5012961;28;20021;-80
2021/10/02 13:38:38;;;;;;;1.98;0.70;;;17.10;92.60;;;;;;5032448;28;20025;-81
2021/10/02 13:41:13;;;;;;;2.30;0.70;;;17.10;92.40;;;;;;5030839;28;20121;-80
2021/10/02 13:43:54;;;;;;;3.75;1.05;;;17.10;92.60;;;;;;5035938;28;20032;-80
2021/10/02 13:46:28;;;;;;;1.23;0.68;;;17.20;92.50;;;;;;5034423;28;20022;-80
2021/10/02 13:48:55;;;;;;;2.25;1.05;;;17.20;92.10;;;;;;5037867;28;20029;-79
2021/10/02 13:51:20;;;;;;;3.50;1.33;;;17.30;92.10;;;;;;5033957;28;20129;-79
2021/10/02 13:53:47;;;;;;;1.55;0.80;;;17.30;91.90;;;;;;5034108;28;20443;-79